DAL1567 KMIA-RJTT
Flight info
| Callsign | DAL1567 |
|---|---|
| Flight time | N/A |
| Altitude | 34000 |
| Route | HURCN4 SMELZ DCT CTY DCT EUF DCT KYLEE DCT VUZ J151 FAM DCT IRK J45 ABR J70 DIK DCT YEA DCT OILRS DCT ANDIE DCT RORTU DCT MUXAT/N0487F360 DCT HOLIE DCT HOM DCT ILI DCT POETT DCT HODDY/N0491F380 R341 NATES R220 NYMPH/N0495F390 R220 NUBDA/N0485F400 R220 NANAC Z22 LOSVA Y810 AKRIT Y807 POLIX |
| Aircraft | A35K/H-SDE2E3GHIJ3J4J5LM1ORWXY/LB1D1 |
Departure
| Time | 2026-04-30 11:05 |
|---|---|
| Airport | Miami International Airport (KMIA) |
Arrival
| Time | N/A |
|---|---|
| Airport | Tokyo Haneda International Airport (RJTT) |
| Time | Latitude | Longitude | Altitude | Speed | Heading |
|---|---|---|---|---|---|
| 2026-04-30 10:43 | 25.79060 | -80.27409 | 21 ft | 0 kts | 81° |
| 2026-04-30 10:53 | 25.79060 | -80.27410 | 21 ft | 2 kts | 81° |
| 2026-04-30 10:54 | 25.79056 | -80.27438 | 27 ft | 4 kts | 84° |
| 2026-04-30 10:54 | 25.79054 | -80.27468 | 27 ft | 4 kts | 91° |
| 2026-04-30 10:54 | 25.79057 | -80.27497 | 27 ft | 4 kts | 114° |
| 2026-04-30 10:54 | 25.79070 | -80.27513 | 25 ft | 2 kts | 175° |
| 2026-04-30 10:55 | 25.79056 | -80.27512 | 28 ft | 4 kts | 177° |
| 2026-04-30 10:55 | 25.79029 | -80.27511 | 25 ft | 4 kts | 178° |
| 2026-04-30 10:55 | 25.79002 | -80.27510 | 24 ft | 4 kts | 178° |
| 2026-04-30 10:55 | 25.78975 | -80.27508 | 26 ft | 3 kts | 178° |
| 2026-04-30 10:56 | 25.78971 | -80.27508 | 27 ft | 0 kts | 178° |
| 2026-04-30 11:01 | 25.78957 | -80.27510 | 15 ft | 3 kts | 187° |
| 2026-04-30 11:01 | 25.78934 | -80.27519 | 27 ft | 6 kts | 204° |
| 2026-04-30 11:02 | 25.78899 | -80.27538 | 29 ft | 5 kts | 205° |
| 2026-04-30 11:02 | 25.78853 | -80.27549 | 28 ft | 12 kts | 189° |
| 2026-04-30 11:02 | 25.78782 | -80.27582 | 27 ft | 11 kts | 233° |
| 2026-04-30 11:02 | 25.78770 | -80.27637 | 28 ft | 0 kts | 268° |
| 2026-04-30 11:03 | 25.78770 | -80.27639 | 28 ft | 3 kts | 268° |
| 2026-04-30 11:03 | 25.78761 | -80.27857 | 27 ft | 56 kts | 267° |
| 2026-04-30 11:04 | 25.78694 | -80.29430 | 22 ft | 145 kts | 267° |
| 2026-04-30 11:04 | 25.78644 | -80.30699 | 119 ft | 174 kts | 268° |
| 2026-04-30 11:04 | 25.78659 | -80.32074 | 348 ft | 189 kts | 282° |
| 2026-04-30 11:04 | 25.79436 | -80.33251 | 520 ft | 205 kts | 328° |
| 2026-04-30 11:05 | 25.80829 | -80.33775 | 822 ft | 213 kts | 336° |
| 2026-04-30 11:05 | 25.81757 | -80.34902 | 1512 ft | 201 kts | 290° |
| 2026-04-30 11:05 | 25.82189 | -80.36450 | 1671 ft | 224 kts | 286° |
| 2026-04-30 11:05 | 25.82646 | -80.38219 | 1792 ft | 246 kts | 288° |
| 2026-04-30 11:06 | 25.83248 | -80.40044 | 2118 ft | 257 kts | 290° |
| 2026-04-30 11:06 | 25.83889 | -80.41923 | 2559 ft | 263 kts | 290° |
| 2026-04-30 11:06 | 25.84673 | -80.43776 | 3043 ft | 268 kts | 304° |
| 2026-04-30 11:06 | 25.86028 | -80.45180 | 3535 ft | 269 kts | 329° |
| 2026-04-30 11:07 | 25.87701 | -80.46119 | 4116 ft | 268 kts | 336° |
| 2026-04-30 11:07 | 25.89407 | -80.46960 | 4685 ft | 269 kts | 336° |